Time;durP1;ratioP1;P1;durP2;ratioP2;P2;SDS_P1;SDS_P2;PMS_P1;PMS_P2;Temp;Humidity;BMP_temperature;BMP_pressure;BME280_temperature;BME280_humidity;BME280_pressure;Samples;Min_cycle;Max_cycle;Signal;HPM_P1;HPM_P2
2022/08/22 00:02:47;;;;;;;3.30;2.88;;;;;;;;;;21007442;28;20055;-57
2022/08/22 00:12:58;;;;;;;3.47;2.70;;;;;;;;;;21005791;28;20134;-57
2022/08/22 00:23:11;;;;;;;3.97;3.00;;;;;;;;;;21005750;28;20052;-58
2022/08/22 00:33:18;;;;;;;4.82;3.05;;;;;;;;;;21005666;28;20078;-57
2022/08/22 00:43:31;;;;;;;3.65;2.65;;;;;;;;;;21004174;28;20056;-56
2022/08/22 00:53:43;;;;;;;3.42;2.80;;;;;;;;;;21003014;28;20056;-57
2022/08/22 01:03:46;;;;;;;5.18;2.70;;;;;;;;;;21002211;28;20075;-56
2022/08/22 01:14:14;;;;;;;3.65;2.95;;;;;;;;;;21001728;28;20052;-55
2022/08/22 01:24:22;;;;;;;4.80;2.85;;;;;;;;;;21000456;28;20055;-56
2022/08/22 01:34:48;;;;;;;4.60;2.50;;;;;;;;;;20999645;28;20058;-56
2022/08/22 01:45:10;;;;;;;4.90;2.97;;;;;;;;;;20998478;28;20088;-57
2022/08/22 01:55:23;;;;;;;4.80;3.15;;;;;;;;;;20998852;28;20052;-56
2022/08/22 02:05:36;;;;;;;4.85;3.33;;;;;;;;;;20998310;28;20054;-56
2022/08/22 02:15:38;;;;;;;4.95;3.25;;;;;;;;;;20997077;28;20051;-56
2022/08/22 02:25:56;;;;;;;5.38;3.30;;;;;;;;;;20996092;28;20053;-56
2022/08/22 02:36:01;;;;;;;6.60;2.70;;;;;;;;;;20995664;28;20051;-56
2022/08/22 02:46:14;;;;;;;3.97;2.85;;;;;;;;;;20994782;28;20053;-55
2022/08/22 02:56:22;;;;;;;4.23;2.43;;;;;;;;;;20995027;28;20063;-55
2022/08/22 03:06:44;;;;;;;4.80;2.80;;;;;;;;;;20994524;28;20052;-59
2022/08/22 03:16:57;;;;;;;4.47;2.83;;;;;;;;;;21010936;28;20086;-56
2022/08/22 03:27:16;;;;;;;5.57;2.72;;;;;;;;;;21009887;28;20162;-56
2022/08/22 03:37:22;;;;;;;6.85;2.80;;;;;;;;;;21009457;28;20507;-57
2022/08/22 03:47:37;;;;;;;6.10;3.03;;;;;;;;;;21008211;28;20084;-59
2022/08/22 03:57:39;;;;;;;6.25;2.72;;;;;;;;;;21007782;28;20047;-58
2022/08/22 04:08:03;;;;;;;3.65;2.75;;;;;;;;;;21007084;28;20048;-58
2022/08/22 04:18:05;;;;;;;3.60;2.53;;;;;;;;;;21006756;28;20048;-57
2022/08/22 04:28:15;;;;;;;6.00;3.28;;;;;;;;;;21005436;28;20071;-57
2022/08/22 04:38:26;;;;;;;3.70;2.20;;;;;;;;;;21005908;28;20079;-58
2022/08/22 04:48:34;;;;;;;5.13;2.97;;;;;;;;;;21004098;28;20094;-60
2022/08/22 04:58:49;;;;;;;3.97;3.03;;;;;;;;;;21003597;28;20045;-58
2022/08/22 05:08:51;;;;;;;3.78;2.50;;;;;;;;;;21003445;28;20080;-57
2022/08/22 05:19:04;;;;;;;3.35;2.30;;;;;;;;;;21001383;28;20056;-57
2022/08/22 05:29:08;;;;;;;3.72;2.60;;;;;;;;;;21000464;28;20534;-56
2022/08/22 05:39:22;;;;;;;4.53;2.67;;;;;;;;;;20997320;28;20084;-56
2022/08/22 05:49:33;;;;;;;7.32;2.42;;;;;;;;;;20999334;28;20078;-56
2022/08/22 05:59:37;;;;;;;5.43;2.97;;;;;;;;;;20998617;28;20491;-57
2022/08/22 06:09:45;;;;;;;4.78;2.95;;;;;;;;;;20997812;28;20052;-56
2022/08/22 06:19:49;;;;;;;7.05;3.15;;;;;;;;;;20998487;28;20057;-57
2022/08/22 06:29:54;;;;;;;5.05;2.67;;;;;;;;;;20997032;28;20438;-56
2022/08/22 06:39:58;;;;;;;9.57;3.35;;;24.60;41.70;;;;;;20996434;28;20513;-56
2022/08/22 06:50:05;;;;;;;4.53;2.90;;;24.60;41.80;;;;;;20994576;28;20070;-57
2022/08/22 07:00:13;;;;;;;4.72;2.78;;;24.80;41.70;;;;;;20993281;28;20059;-56
2022/08/22 07:10:16;;;;;;;5.13;3.08;;;25.10;41.40;;;;;;20993859;28;20052;-56
2022/08/22 07:20:30;;;;;;;10.13;2.75;;;25.30;40.90;;;;;;20993646;28;20508;-55
2022/08/22 07:30:53;;;;;;;6.28;2.35;;;25.90;40.40;;;;;;20993248;28;20109;-56
2022/08/22 07:41:17;;;;;;;3.20;2.40;;;26.20;39.30;;;;;;20992535;28;20084;-57
2022/08/22 07:51:39;;;;;;;7.97;2.50;;;26.50;39.10;;;;;;20992443;28;20044;-58
2022/08/22 08:01:55;;;;;;;4.93;2.67;;;26.60;39.00;;;;;;21003685;28;20076;-56
2022/08/22 08:12:00;;;;;;;4.13;2.72;;;26.90;38.40;;;;;;21005649;28;20136;-57
2022/08/22 08:22:03;;;;;;;4.70;2.85;;;27.10;38.40;;;;;;21005058;28;20048;-55
2022/08/22 08:32:09;;;;;;;4.32;3.03;;;27.30;38.00;;;;;;21005180;28;20083;-57
2022/08/22 08:43:25;;;;;;;3.35;2.40;;;27.60;37.30;;;;;;21003782;28;20056;-58
2022/08/22 08:53:16;;;;;;;3.88;2.28;;;27.90;36.80;;;;;;21003357;28;20048;-56
2022/08/22 09:03:36;;;;;;;5.40;2.80;;;28.00;36.10;;;;;;21003544;28;20117;-56
2022/08/22 09:13:40;;;;;;;5.70;2.95;;;28.30;35.70;;;;;;21001099;28;20052;-56
2022/08/22 09:23:51;;;;;;;3.92;2.33;;;28.50;35.10;;;;;;21000410;28;20135;-56
2022/08/22 09:34:26;;;;;;;3.00;2.20;;;28.70;34.70;;;;;;20999901;28;20056;-58
2022/08/22 09:45:14;;;;;;;5.45;2.03;;;28.90;34.20;;;;;;20905879;28;20083;-56
2022/08/22 09:55:54;;;;;;;5.28;2.40;;;28.90;33.80;;;;;;20906578;28;20045;-56
2022/08/22 10:06:23;;;;;;;3.67;2.00;;;29.10;33.90;;;;;;20905809;28;20052;-56
2022/08/22 10:16:35;;;;;;;3.53;2.10;;;29.10;33.70;;;;;;20721939;28;20050;-56
2022/08/22 10:26:50;;;;;;;2.58;1.95;;;29.30;33.30;;;;;;20821513;28;20180;-56
2022/08/22 10:37:17;;;;;;;4.35;2.35;;;29.60;32.90;;;;;;20820728;28;20119;-57
2022/08/22 10:47:39;;;;;;;4.07;1.70;;;29.60;32.60;;;;;;20864523;28;20084;-56
2022/08/22 10:57:57;;;;;;;3.92;1.80;;;29.80;31.90;;;;;;20992824;28;20049;-54
2022/08/22 11:08:23;;;;;;;2.90;1.60;;;29.90;32.20;;;;;;20995490;28;20504;-55
2022/08/22 11:18:43;;;;;;;1.70;1.02;;;30.10;31.90;;;;;;20993358;28;20477;-58
2022/08/22 11:28:51;;;;;;;1.47;0.97;;;30.20;30.60;;;;;;20994025;28;20095;-56
2022/08/22 11:39:05;;;;;;;1.98;1.10;;;30.40;30.40;;;;;;21007755;28;20055;-59
2022/08/22 11:49:26;;;;;;;1.50;1.00;;;30.70;30.10;;;;;;21007445;28;20048;-56
2022/08/22 12:00:12;;;;;;;1.10;0.70;;;31.00;30.00;;;;;;21007043;28;20045;-56
2022/08/22 12:10:20;;;;;;;0.90;0.50;;;31.10;29.60;;;;;;21006741;28;20477;-56
2022/08/22 12:20:31;;;;;;;1.08;0.75;;;31.30;28.90;;;;;;21005581;28;20484;-56
2022/08/22 12:30:36;;;;;;;;;;;31.40;29.60;;;;;;21002617;28;20063;-57
2022/08/22 12:40:50;;;;;;;1.48;0.80;;;31.50;28.90;;;;;;21002840;28;19921;-58
2022/08/22 12:50:56;;;;;;;2.10;0.90;;;31.70;28.80;;;;;;21002923;28;20501;-58
2022/08/22 13:01:05;;;;;;;1.70;1.00;;;31.90;28.80;;;;;;21004011;28;20489;-58
2022/08/22 13:11:12;;;;;;;1.50;0.90;;;32.20;28.50;;;;;;21002354;28;20048;-56
2022/08/22 13:21:17;;;;;;;1.80;0.93;;;32.30;28.50;;;;;;21001452;28;20134;-59
2022/08/22 13:31:40;;;;;;;2.28;0.90;;;32.40;28.40;;;;;;21000837;28;20048;-58
2022/08/22 13:41:54;;;;;;;1.50;0.90;;;32.60;28.10;;;;;;20998353;28;20059;-58
2022/08/22 13:52:22;;;;;;;1.92;0.90;;;32.70;28.10;;;;;;20998436;28;20059;-59
2022/08/22 14:02:55;;;;;;;1.35;0.93;;;32.80;27.80;;;;;;20906596;28;20049;-57
2022/08/22 14:12:57;;;;;;;1.80;1.27;;;32.80;27.90;;;;;;20905387;28;20049;-57
2022/08/22 14:23:15;;;;;;;2.72;0.93;;;33.00;27.70;;;;;;20904354;28;20095;-56
2022/08/22 14:33:24;;;;;;;2.10;1.13;;;33.10;27.60;;;;;;20928910;28;20044;-57
2022/08/22 14:43:32;;;;;;;2.70;0.93;;;33.10;27.50;;;;;;20995094;28;20132;-57
2022/08/22 14:53:36;;;;;;;1.60;0.98;;;33.40;27.40;;;;;;20994955;28;20059;-56
2022/08/22 15:03:40;;;;;;;2.30;1.13;;;33.40;27.30;;;;;;20996513;28;20119;-57
2022/08/22 15:13:57;;;;;;;1.95;1.35;;;33.40;27.40;;;;;;21011795;28;20476;-58
2022/08/22 15:24:11;;;;;;;1.42;1.13;;;33.50;27.30;;;;;;21008961;28;20052;-58
2022/08/22 15:34:31;;;;;;;2.33;1.00;;;33.60;27.10;;;;;;21010646;28;20128;-57
2022/08/22 15:44:38;;;;;;;1.80;1.13;;;33.50;27.20;;;;;;21008498;28;20067;-58
2022/08/22 15:54:52;;;;;;;2.38;1.40;;;33.50;27.10;;;;;;21008266;28;20087;-59
2022/08/22 16:05:09;;;;;;;2.97;1.13;;;33.50;27.10;;;;;;21007108;28;20135;-58
2022/08/22 16:15:45;;;;;;;1.65;1.10;;;33.70;26.70;;;;;;21005374;28;20052;-56
2022/08/22 16:25:47;;;;;;;7.55;2.63;;;33.70;26.70;;;;;;21005033;28;20044;-58
2022/08/22 16:36:26;;;;;;;2.13;1.35;;;33.70;27.20;;;;;;21005700;28;20048;-59
2022/08/22 16:46:28;;;;;;;;;;;33.60;27.10;;;;;;21004199;28;20460;-59
2022/08/22 16:57:02;;;;;;;2.53;1.40;;;33.60;26.90;;;;;;21002969;28;19924;-57
2022/08/22 17:07:33;;;;;;;4.10;1.20;;;33.50;27.20;;;;;;21002409;28;20052;-57
2022/08/22 17:18:03;;;;;;;2.05;1.20;;;33.50;27.30;;;;;;20910388;28;20091;-58
2022/08/22 17:28:50;;;;;;;2.65;1.45;;;33.40;27.20;;;;;;20910038;28;20056;-59
2022/08/22 17:39:03;;;;;;;2.22;1.58;;;33.50;27.30;;;;;;20909095;28;20081;-57
2022/08/22 17:49:11;;;;;;;5.35;2.20;;;33.50;27.30;;;;;;20943691;28;20411;-59
2022/08/22 17:59:35;;;;;;;1.83;1.30;;;33.50;27.10;;;;;;20997856;28;20052;-56
2022/08/22 18:09:52;;;;;;;4.38;1.70;;;33.40;27.10;;;;;;20997291;28;20052;-56
2022/08/22 18:20:15;;;;;;;2.75;1.40;;;33.20;27.70;;;;;;20996863;28;20045;-56
2022/08/22 18:30:25;;;;;;;3.83;2.42;;;33.10;27.70;;;;;;20995982;28;20056;-56
2022/08/22 18:40:53;;;;;;;5.07;2.28;;;33.00;27.90;;;;;;20995437;28;20057;-58
2022/08/22 18:51:38;;;;;;;5.03;3.10;;;32.80;28.10;;;;;;20993480;28;20052;-58
2022/08/22 19:02:11;;;;;;;4.45;3.15;;;32.70;28.30;;;;;;20994592;28;20146;-57
2022/08/22 19:12:35;;;;;;;7.72;4.07;;;32.60;28.50;;;;;;20994564;28;20488;-58
2022/08/22 19:22:37;;;;;;;7.18;3.65;;;32.40;28.70;;;;;;20994497;28;20071;-57
2022/08/22 19:32:44;;;;;;;5.45;3.05;;;32.30;28.90;;;;;;20992731;28;20053;-57
2022/08/22 19:42:48;;;;;;;3.65;2.22;;;32.10;29.10;;;;;;20993137;28;20055;-56
2022/08/22 19:52:59;;;;;;;4.93;1.98;;;32.00;29.30;;;;;;20998487;28;20488;-56
2022/08/22 20:03:48;;;;;;;6.25;2.25;;;31.90;29.50;;;;;;21008828;28;20068;-58
2022/08/22 20:13:50;;;;;;;6.60;2.60;;;31.80;29.90;;;;;;20833592;28;20045;-57
2022/08/22 20:23:54;;;;;;;8.77;4.63;;;31.60;30.40;;;;;;20833459;28;20054;-58
2022/08/22 20:34:02;;;;;;;6.28;4.53;;;31.40;31.00;;;;;;20833646;28;20053;-57
2022/08/22 20:44:19;;;;;;;9.68;4.50;;;31.30;31.10;;;;;;20976631;28;20140;-56
2022/08/22 20:54:25;;;;;;;3.78;1.60;;;31.10;31.80;;;;;;21007120;28;20439;-55
2022/08/22 21:04:40;;;;;;;2.78;0.88;;;31.10;31.70;;;;;;21004121;28;20477;-56
2022/08/22 21:14:47;;;;;;;3.83;0.70;;;30.90;32.90;;;;;;21003393;28;20059;-56
2022/08/22 21:24:49;;;;;;;3.58;0.82;;;30.60;34.20;;;;;;21000886;28;20056;-56
2022/08/22 21:34:52;;;;;;;3.53;0.70;;;30.10;35.40;;;;;;21001283;28;20056;-57
2022/08/22 21:45:01;;;;;;;2.03;0.73;;;29.90;36.30;;;;;;20998562;28;20048;-56
2022/08/22 21:55:32;;;;;;;3.15;0.63;;;29.60;37.20;;;;;;20998573;28;20095;-58
2022/08/22 22:05:35;;;;;;;2.40;0.80;;;29.30;37.60;;;;;;20998772;28;20053;-57
2022/08/22 22:15:44;;;;;;;2.08;0.70;;;29.00;38.20;;;;;;20996810;28;20044;-55
2022/08/22 22:25:48;;;;;;;2.35;0.90;;;28.70;38.60;;;;;;20996528;28;20544;-56
2022/08/22 22:35:51;;;;;;;2.25;0.70;;;28.60;38.40;;;;;;20996283;28;20051;-56
2022/08/22 22:45:52;;;;;;;1.02;0.57;;;28.30;38.30;;;;;;20995813;28;20063;-57
2022/08/22 22:55:53;;;;;;;0.68;0.60;;;28.10;38.20;;;;;;20995701;28;20056;-56
2022/08/22 23:05:55;;;;;;;1.20;0.60;;;28.10;38.00;;;;;;20994459;28;20139;-56
2022/08/22 23:15:57;;;;;;;0.93;0.40;;;27.90;38.10;;;;;;20995625;28;20496;-58
2022/08/22 23:25:59;;;;;;;2.50;0.68;;;27.70;38.50;;;;;;20997468;28;20110;-55
2022/08/22 23:36:00;;;;;;;0.63;0.43;;;27.60;38.60;;;;;;21009709;28;20154;-57
2022/08/22 23:46:02;;;;;;;0.77;0.60;;;27.50;38.30;;;;;;21009200;28;20056;-57
2022/08/22 23:56:16;;;;;;;2.83;0.60;;;27.30;38.90;;;;;;21008329;28;20049;-56
